Time;durP1;ratioP1;P1;durP2;ratioP2;P2;SDS_P1;SDS_P2;PMS_P1;PMS_P2;Temp;Humidity;BMP_temperature;BMP_pressure;BME280_temperature;BME280_humidity;BME280_pressure;Samples;Min_cycle;Max_cycle;Signal;HPM_P1;HPM_P2
2023/10/05 00:00:27;;;;;;;8.25;2.75;;;16.50;60.60;;;;;;5045738;28;20290;-31
2023/10/05 00:02:45;;;;;;;6.82;2.58;;;16.40;60.60;;;;;;5045819;28;20737;-31
2023/10/05 00:05:12;;;;;;;8.35;2.50;;;16.40;60.60;;;;;;5046218;28;20196;-31
2023/10/05 00:07:40;;;;;;;8.10;2.40;;;16.40;60.60;;;;;;5045983;28;20222;-31
2023/10/05 00:10:09;;;;;;;8.80;2.15;;;16.40;60.60;;;;;;5044486;28;20658;-31
2023/10/05 00:12:39;;;;;;;11.90;3.00;;;16.40;60.60;;;;;;5044435;28;20224;-31
2023/10/05 00:15:14;;;;;;;8.05;2.63;;;16.40;60.70;;;;;;5045349;28;20274;-31
2023/10/05 00:17:42;;;;;;;8.65;3.03;;;16.30;60.60;;;;;;5044984;28;20208;-31
2023/10/05 00:20:24;;;;;;;9.23;2.72;;;16.30;60.60;;;;;;5045551;28;20670;-31
2023/10/05 00:22:51;;;;;;;6.43;2.53;;;16.30;60.70;;;;;;5045400;28;20232;-31
2023/10/05 00:25:23;;;;;;;9.38;2.22;;;16.30;60.70;;;;;;5045221;28;20215;-31
2023/10/05 00:27:54;;;;;;;9.77;2.58;;;16.30;60.70;;;;;;5045486;28;20240;-31
2023/10/05 00:30:23;;;;;;;8.77;2.70;;;16.20;60.70;;;;;;5043991;28;20196;-31
2023/10/05 00:32:58;;;;;;;11.00;3.50;;;16.20;60.70;;;;;;5045648;28;20215;-31
2023/10/05 00:35:32;;;;;;;9.95;2.70;;;16.20;60.70;;;;;;5045316;28;20251;-31
2023/10/05 00:38:34;;;;;;;6.80;2.42;;;16.10;60.70;;;;;;5045776;28;20204;-31
2023/10/05 00:41:03;;;;;;;10.75;2.65;;;16.10;60.80;;;;;;5043958;28;20299;-31
2023/10/05 00:43:31;;;;;;;10.80;3.20;;;16.10;60.90;;;;;;5045992;28;20208;-31
2023/10/05 00:45:58;;;;;;;11.33;3.23;;;16.00;60.80;;;;;;5043660;28;20207;-31
2023/10/05 00:48:34;;;;;;;7.47;2.75;;;16.00;60.80;;;;;;5045325;28;20200;-32
2023/10/05 00:51:23;;;;;;;8.80;3.33;;;16.00;60.90;;;;;;5045590;28;20624;-31
2023/10/05 00:53:56;;;;;;;10.57;2.53;;;15.90;60.90;;;;;;5043840;28;20208;-31
2023/10/05 00:56:23;;;;;;;11.47;3.13;;;15.90;61.00;;;;;;5027094;28;20200;-31
2023/10/05 00:58:54;;;;;;;12.03;3.37;;;15.90;61.00;;;;;;5032408;28;20287;-31
2023/10/05 01:01:28;;;;;;;11.43;3.17;;;15.90;61.00;;;;;;5026215;28;20314;-31
2023/10/05 01:09:22;;;;;;;12.03;2.80;;;15.80;61.10;;;;;;5037539;28;20784;-31
2023/10/05 01:12:11;;;;;;;8.43;2.72;;;15.80;61.20;;;;;;5044740;28;20216;-31
2023/10/05 01:14:46;;;;;;;10.52;3.20;;;15.80;61.20;;;;;;5042847;28;20212;-31
2023/10/05 01:17:13;;;;;;;8.55;2.88;;;15.80;61.20;;;;;;5033795;28;20366;-31
2023/10/05 01:19:43;;;;;;;8.90;2.80;;;15.80;61.30;;;;;;5044844;28;20294;-32
2023/10/05 01:22:16;;;;;;;9.35;2.90;;;15.80;61.30;;;;;;5043583;28;20339;-31
2023/10/05 01:24:45;;;;;;;8.90;2.40;;;15.70;61.30;;;;;;5044702;28;20204;-31
2023/10/05 01:27:18;;;;;;;11.57;2.58;;;15.70;61.30;;;;;;5045041;28;20200;-31
2023/10/05 01:29:49;;;;;;;7.22;2.60;;;15.70;61.40;;;;;;5045029;28;20772;-31
2023/10/05 01:32:16;;;;;;;8.43;2.90;;;15.70;61.30;;;;;;5048763;28;20674;-31
2023/10/05 01:34:49;;;;;;;8.07;2.50;;;15.70;61.40;;;;;;5048907;28;20204;-31
2023/10/05 01:37:30;;;;;;;8.40;2.97;;;15.70;61.30;;;;;;5048514;28;20262;-31
2023/10/05 01:40:01;;;;;;;8.68;2.67;;;15.70;61.50;;;;;;5048340;28;20285;-31
2023/10/05 01:42:32;;;;;;;11.32;2.85;;;15.70;61.50;;;;;;5048624;28;20282;-31
2023/10/05 01:45:06;;;;;;;10.52;2.95;;;15.70;61.50;;;;;;5048499;28;20287;-31
2023/10/05 01:47:33;;;;;;;9.43;2.77;;;15.70;61.50;;;;;;5048716;28;20732;-31
2023/10/05 01:50:01;;;;;;;6.83;2.40;;;15.60;61.40;;;;;;5048372;28;20572;-32
2023/10/05 01:52:29;;;;;;;8.23;2.53;;;15.60;61.60;;;;;;5048273;28;20204;-31
2023/10/05 01:54:56;;;;;;;12.37;2.90;;;15.60;61.60;;;;;;5046644;28;20311;-32
2023/10/05 01:57:25;;;;;;;6.93;2.60;;;15.60;61.60;;;;;;5047421;28;20215;-31
2023/10/05 01:59:54;;;;;;;5.55;2.25;;;15.60;61.60;;;;;;5048141;28;20222;-31
2023/10/05 02:02:21;;;;;;;7.72;2.70;;;15.60;61.60;;;;;;5048397;28;20683;-31
2023/10/05 02:04:49;;;;;;;9.85;3.03;;;15.60;61.70;;;;;;5048113;28;20197;-31
2023/10/05 02:07:16;;;;;;;11.10;2.47;;;15.60;61.70;;;;;;5047737;28;20192;-31
2023/10/05 02:09:43;;;;;;;8.15;2.95;;;15.60;61.70;;;;;;5046683;28;20206;-31
2023/10/05 02:12:13;;;;;;;9.53;2.93;;;15.60;61.70;;;;;;5046499;28;20230;-31
2023/10/05 02:14:42;;;;;;;5.50;2.50;;;15.60;61.80;;;;;;5046240;28;20258;-32
2023/10/05 02:17:10;;;;;;;6.43;2.35;;;15.60;61.80;;;;;;5046188;28;20289;-31
2023/10/05 02:19:38;;;;;;;12.20;2.47;;;15.60;61.80;;;;;;5047814;28;20291;-32
2023/10/05 02:22:11;;;;;;;10.30;3.27;;;15.60;61.80;;;;;;5046150;28;20301;-31
2023/10/05 02:24:41;;;;;;;10.20;3.37;;;15.60;61.90;;;;;;5047962;28;20570;-31
2023/10/05 02:27:09;;;;;;;6.43;2.70;;;15.60;61.90;;;;;;5046135;28;20784;-32
2023/10/05 02:29:43;;;;;;;8.40;2.60;;;15.60;61.90;;;;;;5046166;28;20196;-31
2023/10/05 02:32:15;;;;;;;9.33;2.67;;;15.60;61.90;;;;;;5030748;28;20572;-31
2023/10/05 02:34:59;;;;;;;11.52;2.85;;;15.60;62.00;;;;;;5048511;28;20224;-31
2023/10/05 02:37:36;;;;;;;7.63;2.63;;;15.60;62.00;;;;;;5047505;28;20220;-31
2023/10/05 02:40:09;;;;;;;11.33;3.13;;;15.60;62.10;;;;;;5047282;28;20285;-31
2023/10/05 02:42:39;;;;;;;5.88;2.63;;;15.60;62.00;;;;;;5046779;28;20680;-31
2023/10/05 02:45:09;;;;;;;12.13;3.43;;;15.70;62.10;;;;;;5045822;28;20208;-31
2023/10/05 02:47:36;;;;;;;8.83;2.90;;;15.70;62.10;;;;;;5047173;28;20569;-31
2023/10/05 02:50:05;;;;;;;11.77;2.80;;;15.70;62.10;;;;;;5045756;28;20583;-31
2023/10/05 02:52:39;;;;;;;11.13;2.73;;;15.70;62.20;;;;;;5047222;28;20196;-31
2023/10/05 02:55:08;;;;;;;7.53;2.70;;;15.70;62.20;;;;;;5045486;28;20280;-31
2023/10/05 02:57:39;;;;;;;13.57;2.72;;;15.70;62.20;;;;;;5045619;28;20210;-31
2023/10/05 03:00:08;;;;;;;9.23;2.90;;;15.70;62.10;;;;;;5047513;28;20569;-31
2023/10/05 03:02:45;;;;;;;7.78;2.20;;;15.70;62.20;;;;;;5047216;28;20683;-31
2023/10/05 03:05:12;;;;;;;12.57;2.60;;;15.70;62.20;;;;;;5047143;28;20461;-31
2023/10/05 03:07:47;;;;;;;6.30;2.55;;;15.70;62.30;;;;;;5045253;28;20570;-31
2023/10/05 03:10:16;;;;;;;7.07;2.70;;;15.70;62.30;;;;;;5045621;28;20469;-31
2023/10/05 03:12:44;;;;;;;9.18;2.90;;;15.70;62.20;;;;;;5047487;28;20379;-31
2023/10/05 03:15:12;;;;;;;8.05;2.90;;;15.70;62.20;;;;;;5047062;28;20235;-31
2023/10/05 03:17:45;;;;;;;7.93;2.70;;;15.80;62.30;;;;;;5047040;28;20200;-31
2023/10/05 03:20:18;;;;;;;8.95;2.90;;;15.80;62.30;;;;;;5046855;28;20210;-31
2023/10/05 03:22:48;;;;;;;8.03;2.40;;;15.70;62.30;;;;;;5046558;28;20236;-31
2023/10/05 03:25:16;;;;;;;8.85;3.03;;;15.80;62.30;;;;;;5045171;28;20196;-31
2023/10/05 03:27:46;;;;;;;5.50;2.70;;;15.80;62.50;;;;;;5046522;28;20614;-31
2023/10/05 03:30:14;;;;;;;7.97;2.28;;;15.80;62.30;;;;;;5045148;28;20200;-31
2023/10/05 03:32:41;;;;;;;8.83;2.50;;;15.80;62.40;;;;;;5044975;28;20235;-32
2023/10/05 03:35:09;;;;;;;5.23;2.47;;;15.80;62.40;;;;;;5045231;28;20226;-32
2023/10/05 03:37:41;;;;;;;7.88;2.90;;;15.80;62.40;;;;;;5046638;28;20258;-31
2023/10/05 03:40:22;;;;;;;7.18;2.30;;;15.80;62.40;;;;;;5029211;28;20746;-31
2023/10/05 03:42:57;;;;;;;9.32;2.72;;;15.80;62.50;;;;;;5045214;28;20231;-31
2023/10/05 03:45:24;;;;;;;7.00;2.87;;;15.80;62.50;;;;;;5046268;28;20239;-31
2023/10/05 03:47:53;;;;;;;3.83;2.30;;;15.70;62.40;;;;;;5044842;28;20294;-31
2023/10/05 03:50:29;;;;;;;9.67;3.10;;;15.80;62.50;;;;;;5046707;28;20250;-31
2023/10/05 03:52:59;;;;;;;11.17;2.87;;;15.80;63.30;;;;;;5045581;28;20214;-31
2023/10/05 03:55:26;;;;;;;16.83;2.80;;;15.80;62.50;;;;;;5044863;28;20296;-31
2023/10/05 03:57:54;;;;;;;9.45;3.20;;;15.80;62.50;;;;;;5046165;28;20303;-31
2023/10/05 04:02:54;;;;;;;6.30;2.60;;;15.70;62.60;;;;;;5046075;28;20641;-31
2023/10/05 04:05:23;;;;;;;12.20;2.70;;;15.70;62.60;;;;;;5046035;28;20260;-32
2023/10/05 04:08:00;;;;;;;8.53;2.90;;;15.70;62.60;;;;;;5044509;28;20604;-31
2023/10/05 04:10:43;;;;;;;8.30;2.70;;;15.70;62.60;;;;;;5046370;28;20678;-31
2023/10/05 04:13:17;;;;;;;9.80;2.87;;;15.70;62.60;;;;;;5045891;28;20208;-31
2023/10/05 04:15:47;;;;;;;7.83;2.57;;;15.70;62.60;;;;;;5046045;28;20250;-32
2023/10/05 04:18:20;;;;;;;11.07;2.70;;;15.70;62.60;;;;;;5046205;28;20200;-31
2023/10/05 04:20:47;;;;;;;12.50;3.10;;;15.70;62.70;;;;;;5045504;28;20203;-31
2023/10/05 04:23:25;;;;;;;9.60;3.10;;;15.70;62.70;;;;;;5045467;28;20239;-32
2023/10/05 04:25:57;;;;;;;10.55;3.15;;;15.70;62.70;;;;;;5044551;28;20195;-31
2023/10/05 04:28:34;;;;;;;9.93;2.85;;;15.70;62.70;;;;;;5044616;28;20281;-31
2023/10/05 04:31:08;;;;;;;10.55;3.00;;;15.70;62.70;;;;;;5045507;28;20216;-31
2023/10/05 04:33:39;;;;;;;10.02;3.00;;;15.60;62.70;;;;;;5045723;28;20372;-31
2023/10/05 04:36:09;;;;;;;9.83;2.73;;;15.60;62.70;;;;;;5045504;28;20200;-31
2023/10/05 04:38:38;;;;;;;7.10;2.57;;;15.60;62.70;;;;;;5043672;28;20204;-31
2023/10/05 04:41:06;;;;;;;8.70;2.60;;;15.60;62.80;;;;;;5045206;28;20234;-32
2023/10/05 04:43:34;;;;;;;9.03;2.70;;;15.60;62.80;;;;;;5043691;28;20277;-31
2023/10/05 04:46:07;;;;;;;12.10;3.20;;;15.60;62.80;;;;;;5045256;28;20285;-31
2023/10/05 04:48:34;;;;;;;7.13;2.72;;;15.60;62.90;;;;;;5043816;28;20250;-28
2023/10/05 04:51:05;;;;;;;9.15;3.03;;;15.60;62.90;;;;;;5045559;28;20274;-28
2023/10/05 04:53:35;;;;;;;11.17;3.30;;;15.60;62.90;;;;;;5043649;28;20207;-28
2023/10/05 04:56:27;;;;;;;9.35;2.88;;;15.60;62.90;;;;;;5044915;28;20202;-28
2023/10/05 05:07:07;;;;;;;9.77;2.70;;;15.60;63.00;;;;;;5045397;28;20208;-28
2023/10/05 05:09:42;;;;;;;13.20;3.43;;;15.60;63.00;;;;;;5043497;28;20295;-28
2023/10/05 05:12:17;;;;;;;11.00;3.10;;;15.60;63.10;;;;;;5045064;28;20280;-30
2023/10/05 05:14:45;;;;;;;11.70;3.93;;;15.60;63.10;;;;;;5043250;28;20199;-29
2023/10/05 05:17:15;;;;;;;11.20;3.90;;;15.60;63.10;;;;;;5044719;28;20218;-30
2023/10/05 05:19:46;;;;;;;12.93;3.43;;;15.60;63.10;;;;;;5044658;28;20625;-30
2023/10/05 05:22:18;;;;;;;10.43;3.03;;;15.70;63.10;;;;;;5044673;28;20204;-30
2023/10/05 05:24:50;;;;;;;7.47;3.20;;;15.60;63.10;;;;;;5043104;28;20242;-30
2023/10/05 05:29:45;;;;;;;11.53;3.47;;;15.70;63.10;;;;;;5044787;28;20731;-30
2023/10/05 05:32:15;;;;;;;7.30;2.78;;;15.60;63.20;;;;;;5044978;28;20734;-30
2023/10/05 05:34:43;;;;;;;12.07;3.60;;;15.70;63.30;;;;;;5044942;28;20678;-30
2023/10/05 05:37:31;;;;;;;9.13;2.95;;;15.70;63.30;;;;;;5044857;28;20200;-30
2023/10/05 05:40:12;;;;;;;13.30;3.07;;;15.70;63.30;;;;;;5045077;28;20290;-30
2023/10/05 05:42:44;;;;;;;9.23;3.15;;;15.70;63.30;;;;;;5043323;28;20680;-30
2023/10/05 05:45:16;;;;;;;7.35;3.22;;;15.70;63.30;;;;;;5044535;28;20266;-30
2023/10/05 05:47:47;;;;;;;13.13;3.88;;;15.70;63.30;;;;;;5044606;28;20200;-30
2023/10/05 05:50:17;;;;;;;9.40;3.50;;;15.70;63.30;;;;;;5042758;28;20213;-30
2023/10/05 05:52:51;;;;;;;15.23;4.00;;;15.70;63.30;;;;;;5044333;28;20200;-30
2023/10/05 05:55:23;;;;;;;9.73;3.28;;;15.60;63.30;;;;;;5026933;28;20223;-30
2023/10/05 05:57:52;;;;;;;13.80;3.72;;;15.60;63.40;;;;;;5043190;28;20214;-30
2023/10/05 06:00:20;;;;;;;10.93;3.50;;;15.60;63.40;;;;;;5042807;28;20237;-30
2023/10/05 06:02:47;;;;;;;19.13;4.10;;;15.60;63.40;;;;;;5042687;28;20248;-30
2023/10/05 06:05:22;;;;;;;16.88;3.53;;;15.60;63.40;;;;;;5042966;28;20228;-30
2023/10/05 06:07:50;;;;;;;12.60;3.50;;;15.60;63.50;;;;;;5042942;28;20188;-30
2023/10/05 06:10:28;;;;;;;13.80;3.53;;;15.60;63.40;;;;;;5026373;28;20262;-30
2023/10/05 06:12:58;;;;;;;11.37;3.27;;;15.60;63.40;;;;;;5043752;28;20623;-30
2023/10/05 06:15:26;;;;;;;8.15;3.45;;;15.60;63.40;;;;;;5044376;28;20682;-30
2023/10/05 06:17:53;;;;;;;14.20;3.37;;;15.60;63.50;;;;;;5046308;28;20196;-30
2023/10/05 06:20:27;;;;;;;10.95;3.45;;;15.60;63.60;;;;;;5030169;28;20304;-30
2023/10/05 06:22:57;;;;;;;11.00;3.67;;;15.60;63.60;;;;;;5047592;28;20652;-30
2023/10/05 06:25:27;;;;;;;16.25;4.85;;;15.60;63.70;;;;;;5047684;28;20195;-30
2023/10/05 06:27:59;;;;;;;13.20;3.83;;;15.60;63.70;;;;;;5047501;28;20497;-30
2023/10/05 06:30:35;;;;;;;14.90;3.33;;;15.60;63.70;;;;;;5047456;28;20222;-30
2023/10/05 06:33:07;;;;;;;14.45;3.72;;;15.60;63.70;;;;;;5047462;28;20215;-30
2023/10/05 06:35:35;;;;;;;12.23;3.70;;;15.60;63.70;;;;;;5047745;28;20678;-30
2023/10/05 06:38:04;;;;;;;12.73;3.47;;;15.60;63.80;;;;;;5047452;28;20733;-30
2023/10/05 06:40:33;;;;;;;12.30;3.35;;;15.60;63.80;;;;;;5029707;28;20226;-30
2023/10/05 06:43:00;;;;;;;8.77;3.20;;;15.60;63.90;;;;;;5045810;28;20236;-30
2023/10/05 06:45:30;;;;;;;8.93;3.38;;;15.60;63.90;;;;;;5047181;28;20200;-30
2023/10/05 06:47:57;;;;;;;13.43;3.73;;;15.60;63.90;;;;;;5029577;28;20362;-30
2023/10/05 06:50:24;;;;;;;12.60;3.37;;;15.70;64.00;;;;;;5047445;28;20211;-30
2023/10/05 06:52:52;;;;;;;14.73;3.87;;;15.70;64.00;;;;;;5046310;28;20200;-30
2023/10/05 06:55:23;;;;;;;12.23;3.50;;;15.70;64.00;;;;;;5045781;28;20278;-30
2023/10/05 06:57:50;;;;;;;9.90;3.13;;;15.80;64.00;;;;;;5045686;28;20377;-30
2023/10/05 07:00:26;;;;;;;12.57;3.30;;;15.80;64.00;;;;;;5029306;28;20755;-30
2023/10/05 07:02:54;;;;;;;10.05;3.20;;;15.80;64.00;;;;;;5046968;28;20188;-30
2023/10/05 07:05:22;;;;;;;13.83;3.50;;;15.80;64.00;;;;;;5045265;28;20706;-30
2023/10/05 07:07:49;;;;;;;9.73;3.70;;;15.80;64.10;;;;;;5046611;28;20235;-30
2023/10/05 07:10:17;;;;;;;9.77;3.73;;;15.90;64.20;;;;;;5045181;28;20287;-30
2023/10/05 07:12:48;;;;;;;9.60;3.45;;;15.90;64.20;;;;;;5046713;28;20200;-30
2023/10/05 07:15:21;;;;;;;14.07;4.03;;;15.90;64.20;;;;;;5045189;28;20280;-30
2023/10/05 07:17:50;;;;;;;9.00;3.60;;;15.90;64.20;;;;;;5044941;28;20200;-30
2023/10/05 07:20:22;;;;;;;15.17;3.57;;;15.90;64.20;;;;;;5046663;28;20200;-30
2023/10/05 07:22:52;;;;;;;12.30;3.30;;;16.00;64.30;;;;;;5044998;28;20202;-30
2023/10/05 07:25:19;;;;;;;14.73;4.03;;;15.90;64.40;;;;;;5046948;28;20228;-29
2023/10/05 07:27:51;;;;;;;12.85;3.63;;;16.00;64.30;;;;;;5046720;28;20196;-30
2023/10/05 07:30:18;;;;;;;13.23;3.87;;;16.00;64.40;;;;;;5046404;28;20254;-30
2023/10/05 07:32:47;;;;;;;12.75;4.13;;;16.10;64.40;;;;;;5044881;28;20682;-30
2023/10/05 07:35:36;;;;;;;15.75;3.97;;;16.10;64.40;;;;;;5046480;28;20198;-30
2023/10/05 07:38:04;;;;;;;8.43;3.58;;;16.10;64.50;;;;;;5046418;28;20198;-29
2023/10/05 07:40:31;;;;;;;13.43;3.77;;;16.20;65.40;;;;;;5046137;28;20307;-30
2023/10/05 07:43:03;;;;;;;10.45;3.75;;;16.20;64.60;;;;;;5046370;28;20224;-30
2023/10/05 07:45:33;;;;;;;11.63;3.90;;;16.20;64.60;;;;;;5045031;28;20215;-29
2023/10/05 07:48:04;;;;;;;14.27;4.18;;;16.30;64.70;;;;;;5028232;28;20765;-30
2023/10/05 07:50:32;;;;;;;12.60;3.50;;;16.30;64.60;;;;;;5046222;28;20212;-30
2023/10/05 07:52:59;;;;;;;12.30;3.53;;;16.30;64.60;;;;;;5046526;28;20203;-30
2023/10/05 07:55:28;;;;;;;9.40;3.47;;;16.30;64.60;;;;;;5027901;28;20232;-30
2023/10/05 07:58:02;;;;;;;13.18;4.13;;;16.40;64.70;;;;;;5044338;28;20200;-29
2023/10/05 08:00:33;;;;;;;14.07;3.15;;;16.40;64.80;;;;;;5046044;28;20236;-30
2023/10/05 08:03:00;;;;;;;9.20;3.20;;;16.40;64.70;;;;;;5044697;28;20705;-30
2023/10/05 08:05:30;;;;;;;10.70;3.63;;;16.50;64.70;;;;;;5045996;28;20219;-30
2023/10/05 08:08:02;;;;;;;18.85;3.67;;;16.50;64.80;;;;;;5045677;28;20235;-29
2023/10/05 08:10:29;;;;;;;10.77;3.57;;;16.50;64.70;;;;;;5045659;28;20698;-30
2023/10/05 08:13:05;;;;;;;15.47;3.60;;;16.60;64.80;;;;;;5044024;28;20207;-29
2023/10/05 08:15:34;;;;;;;12.45;3.75;;;16.60;64.70;;;;;;5044045;28;20477;-29
2023/10/05 08:18:05;;;;;;;9.50;3.03;;;16.60;64.80;;;;;;5045548;28;20590;-30
2023/10/05 08:20:32;;;;;;;10.52;3.38;;;16.60;64.80;;;;;;5045625;28;20215;-30
2023/10/05 08:22:59;;;;;;;16.75;4.20;;;16.60;64.80;;;;;;5045296;28;20200;-29
2023/10/05 08:25:27;;;;;;;16.33;4.10;;;16.70;65.60;;;;;;5045165;28;20223;-30
2023/10/05 08:27:57;;;;;;;16.17;4.05;;;16.70;64.80;;;;;;5043808;28;20298;-30
2023/10/05 08:30:24;;;;;;;10.32;3.40;;;16.70;65.00;;;;;;5045398;28;20740;-29
2023/10/05 08:32:53;;;;;;;14.70;3.53;;;16.70;64.90;;;;;;5043826;28;20262;-30
2023/10/05 08:35:21;;;;;;;8.55;3.08;;;16.80;64.90;;;;;;5044000;28;20645;-30
2023/10/05 08:37:53;;;;;;;11.07;3.53;;;16.80;64.90;;;;;;5043877;28;20204;-30
2023/10/05 08:43:16;;;;;;;17.35;4.20;;;16.80;64.90;;;;;;5045091;28;20208;-29
2023/10/05 08:45:46;;;;;;;18.48;4.00;;;16.90;65.00;;;;;;5045497;28;20291;-29
2023/10/05 08:48:28;;;;;;;11.05;2.95;;;16.90;64.90;;;;;;5043458;28;20270;-29
2023/10/05 08:51:12;;;;;;;16.30;3.72;;;16.90;65.00;;;;;;5044926;28;20201;-30
2023/10/05 08:53:48;;;;;;;14.15;3.50;;;16.90;65.00;;;;;;5043841;28;20547;-29
2023/10/05 08:56:20;;;;;;;14.27;3.35;;;16.90;65.00;;;;;;5027795;28;20203;-29
2023/10/05 08:58:51;;;;;;;15.68;3.90;;;17.00;65.90;;;;;;5043166;28;20290;-29
2023/10/05 09:01:25;;;;;;;11.50;3.23;;;17.00;65.10;;;;;;5044761;28;20236;-29
2023/10/05 09:07:14;;;;;;;18.43;4.00;;;17.10;65.10;;;;;;5044679;28;20210;-29
2023/10/05 09:09:54;;;;;;;10.65;2.90;;;17.10;65.30;;;;;;5044988;28;20291;-29
2023/10/05 09:12:35;;;;;;;11.95;3.28;;;17.10;65.10;;;;;;5043344;28;20429;-29
2023/10/05 09:15:09;;;;;;;10.52;3.35;;;17.20;65.10;;;;;;5044912;28;20193;-29
2023/10/05 09:17:37;;;;;;;11.27;3.75;;;17.20;65.20;;;;;;5045256;28;20230;-29
2023/10/05 09:20:24;;;;;;;10.07;3.08;;;17.20;65.10;;;;;;5043433;28;20223;-29
2023/10/05 09:22:56;;;;;;;10.32;3.50;;;17.20;65.30;;;;;;5043161;28;20754;-30
2023/10/05 09:25:27;;;;;;;15.48;3.20;;;17.30;65.70;;;;;;5043031;28;20713;-30
2023/10/05 09:27:59;;;;;;;8.50;3.03;;;17.30;65.20;;;;;;5044421;28;20196;-29
2023/10/05 09:30:30;;;;;;;13.30;3.05;;;17.30;65.30;;;;;;5044740;28;20613;-30
2023/10/05 09:33:15;;;;;;;6.45;3.00;;;17.40;65.30;;;;;;5044500;28;20749;-29
2023/10/05 09:35:46;;;;;;;10.57;3.38;;;17.40;65.30;;;;;;5044579;28;20303;-30
2023/10/05 09:38:17;;;;;;;14.30;3.85;;;17.40;65.30;;;;;;5044635;28;20216;-29
2023/10/05 09:40:47;;;;;;;13.05;3.90;;;17.50;65.40;;;;;;5044575;28;20207;-30
2023/10/05 09:43:18;;;;;;;12.20;3.65;;;17.50;65.30;;;;;;5043267;28;20295;-29
2023/10/05 09:45:55;;;;;;;11.85;3.40;;;17.50;65.20;;;;;;5042637;28;20529;-29
2023/10/05 09:48:25;;;;;;;9.98;3.63;;;17.50;65.30;;;;;;5044396;28;20556;-29
2023/10/05 09:50:52;;;;;;;14.82;3.85;;;17.50;65.20;;;;;;5044747;28;20258;-28
2023/10/05 09:53:28;;;;;;;13.68;3.95;;;17.60;66.00;;;;;;5047119;28;20205;-28
2023/10/05 09:55:59;;;;;;;13.18;3.65;;;17.60;65.30;;;;;;5048044;28;20777;-28
2023/10/05 09:58:30;;;;;;;12.73;3.42;;;17.60;65.20;;;;;;5048279;28;20197;-28
2023/10/05 10:01:10;;;;;;;9.90;3.55;;;17.60;65.10;;;;;;5047839;28;20239;-28
2023/10/05 10:03:45;;;;;;;9.93;3.47;;;17.70;65.20;;;;;;5047853;28;20200;-28
2023/10/05 10:06:18;;;;;;;12.10;3.85;;;17.60;65.10;;;;;;5047873;28;20323;-28
2023/10/05 10:08:51;;;;;;;12.40;3.35;;;17.70;65.30;;;;;;5048028;28;20679;-28
2023/10/05 10:11:27;;;;;;;13.70;3.10;;;17.70;65.30;;;;;;5047946;28;20232;-28
2023/10/05 10:14:15;;;;;;;15.45;3.70;;;17.70;65.20;;;;;;5046336;28;20206;-28
2023/10/05 10:16:47;;;;;;;14.60;3.55;;;17.80;65.30;;;;;;5047915;28;20203;-28
2023/10/05 10:19:20;;;;;;;15.27;4.13;;;17.80;65.40;;;;;;5048009;28;20211;-28
2023/10/05 10:22:00;;;;;;;16.52;3.58;;;17.80;65.40;;;;;;5030335;28;20196;-28
2023/10/05 10:24:31;;;;;;;10.00;3.08;;;17.90;65.40;;;;;;5047974;28;20305;-28
2023/10/05 10:27:08;;;;;;;11.32;3.40;;;17.90;65.40;;;;;;5046168;28;20192;-28
2023/10/05 10:29:46;;;;;;;8.68;3.38;;;17.90;65.40;;;;;;5046594;28;20283;-28
2023/10/05 10:32:19;;;;;;;7.93;2.70;;;18.00;65.40;;;;;;5047712;28;20295;-28
2023/10/05 10:34:52;;;;;;;7.30;3.05;;;18.00;65.50;;;;;;5047494;28;20611;-29
2023/10/05 10:37:54;;;;;;;14.65;3.53;;;18.10;65.60;;;;;;5045912;28;20678;-28
2023/10/05 10:42:54;;;;;;;15.05;3.03;;;18.10;65.50;;;;;;5046986;28;20211;-28
2023/10/05 10:45:32;;;;;;;11.23;2.88;;;18.20;65.60;;;;;;5045582;28;20239;-29
2023/10/05 10:48:12;;;;;;;9.50;2.95;;;18.20;65.50;;;;;;5046910;28;20230;-28
2023/10/05 10:50:42;;;;;;;12.18;3.25;;;18.30;65.60;;;;;;5047242;28;20606;-29
2023/10/05 10:53:17;;;;;;;7.18;2.80;;;18.30;65.40;;;;;;5045471;28;20678;-29
2023/10/05 10:55:51;;;;;;;9.98;2.65;;;18.40;65.40;;;;;;5046885;28;20285;-28
2023/10/05 10:58:30;;;;;;;10.68;2.50;;;18.40;65.30;;;;;;5047012;28;20843;-29
2023/10/05 11:01:22;;;;;;;13.73;3.47;;;18.40;65.30;;;;;;5046698;28;20740;-28
2023/10/05 11:04:04;;;;;;;10.85;2.92;;;18.50;65.30;;;;;;5045260;28;20200;-28
2023/10/05 11:06:40;;;;;;;14.55;2.90;;;18.50;65.30;;;;;;5047206;28;20231;-28
2023/10/05 11:09:10;;;;;;;10.75;2.90;;;18.50;65.30;;;;;;5046486;28;20219;-29
2023/10/05 11:11:37;;;;;;;10.43;2.97;;;18.60;65.40;;;;;;5046371;28;20299;-28
2023/10/05 11:14:21;;;;;;;7.30;2.67;;;18.60;65.30;;;;;;5046794;28;20762;-28
2023/10/05 11:16:59;;;;;;;14.90;2.88;;;18.70;65.30;;;;;;5046339;28;20319;-29
2023/10/05 11:19:40;;;;;;;10.18;2.92;;;18.70;65.30;;;;;;5045069;28;20287;-28
2023/10/05 11:22:12;;;;;;;8.77;2.40;;;18.70;65.20;;;;;;5044788;28;20200;-29
2023/10/05 11:25:14;;;;;;;16.20;3.50;;;18.70;65.10;;;;;;5046199;28;20233;-28
2023/10/05 11:27:54;;;;;;;50.30;8.18;;;18.80;65.20;;;;;;5046019;28;20590;-28
2023/10/05 11:30:49;;;;;;;15.15;3.25;;;18.80;65.10;;;;;;5044899;28;20204;-29
2023/10/05 11:33:41;;;;;;;10.82;2.78;;;18.80;65.10;;;;;;5045166;28;20212;-29
2023/10/05 11:36:33;;;;;;;15.57;3.83;;;18.80;65.00;;;;;;5046618;28;20208;-28
2023/10/05 11:39:02;;;;;;;9.13;2.60;;;18.90;65.10;;;;;;5044780;28;20721;-28
2023/10/05 11:41:33;;;;;;;11.35;2.92;;;18.90;65.00;;;;;;5046069;28;20216;-32
2023/10/05 11:44:11;;;;;;;14.82;2.90;;;18.90;64.90;;;;;;5046460;28;20196;-29
2023/10/05 11:46:49;;;;;;;11.60;3.30;;;18.90;64.90;;;;;;5044638;28;20196;-29
2023/10/05 11:49:17;;;;;;;13.10;2.70;;;18.90;64.80;;;;;;5044658;28;20224;-28
2023/10/05 11:51:48;;;;;;;14.05;2.80;;;18.90;64.80;;;;;;5045996;28;20219;-29
2023/10/05 11:54:19;;;;;;;11.43;2.10;;;19.00;64.80;;;;;;5044702;28;20220;-29
2023/10/05 11:56:47;;;;;;;11.52;2.58;;;19.00;64.80;;;;;;5045687;28;20220;-29
2023/10/05 11:59:45;;;;;;;9.48;2.35;;;19.00;64.60;;;;;;5044291;28;20248;-29
2023/10/05 12:02:17;;;;;;;7.57;2.20;;;19.00;64.50;;;;;;5043249;28;20232;-28
2023/10/05 12:04:45;;;;;;;10.18;2.35;;;19.00;64.50;;;;;;5046179;28;20588;-29
2023/10/05 12:07:21;;;;;;;13.40;2.85;;;19.00;64.40;;;;;;5045443;28;20224;-29
2023/10/05 12:09:52;;;;;;;11.38;2.78;;;19.00;64.30;;;;;;5045892;28;20227;-29
2023/10/05 12:12:19;;;;;;;25.40;3.40;;;19.00;64.30;;;;;;5045725;28;20639;-29
2023/10/05 12:14:46;;;;;;;30.70;3.50;;;19.00;64.30;;;;;;5044396;28;20223;-28
2023/10/05 12:17:19;;;;;;;8.23;2.38;;;19.00;64.30;;;;;;5044608;28;20287;-29
2023/10/05 12:19:51;;;;;;;7.80;2.13;;;19.00;64.30;;;;;;5044382;28;20212;-28
2023/10/05 12:22:18;;;;;;;10.80;2.38;;;19.00;64.20;;;;;;5043658;28;20212;-29
2023/10/05 12:24:46;;;;;;;7.25;2.22;;;19.00;64.00;;;;;;5045020;28;20231;-29
2023/10/05 12:27:20;;;;;;;19.85;3.38;;;19.00;64.10;;;;;;5045461;28;20299;-28
2023/10/05 12:29:50;;;;;;;13.40;2.47;;;19.00;64.10;;;;;;5045289;28;20200;-29
2023/10/05 12:32:17;;;;;;;14.00;3.10;;;19.10;64.00;;;;;;5044943;28;20559;-29
2023/10/05 12:34:51;;;;;;;15.48;3.10;;;19.10;64.20;;;;;;5044773;28;20298;-29
2023/10/05 12:37:21;;;;;;;6.57;1.77;;;19.10;64.00;;;;;;5043631;28;20211;-29
2023/10/05 12:39:51;;;;;;;6.80;2.03;;;19.10;63.90;;;;;;5045305;28;20211;-28
2023/10/05 12:42:20;;;;;;;9.98;2.42;;;19.10;63.90;;;;;;5044807;28;20840;-29
2023/10/05 12:44:53;;;;;;;7.57;2.10;;;19.10;63.90;;;;;;5027142;28;20226;-29
2023/10/05 12:47:21;;;;;;;9.73;2.33;;;19.10;63.80;;;;;;5045052;28;20288;-29
2023/10/05 12:49:48;;;;;;;7.60;1.88;;;19.10;63.80;;;;;;5043494;28;20243;-28
2023/10/05 12:52:16;;;;;;;7.88;2.05;;;19.20;63.90;;;;;;5043419;28;20207;-27
2023/10/05 12:54:44;;;;;;;5.47;1.77;;;19.20;63.70;;;;;;5044997;28;20227;-28
2023/10/05 12:57:13;;;;;;;6.25;2.00;;;19.20;63.50;;;;;;5043401;28;20199;-28
2023/10/05 12:59:43;;;;;;;6.00;1.63;;;19.20;63.60;;;;;;5043467;28;20224;-28
2023/10/05 13:02:15;;;;;;;8.40;2.05;;;19.30;63.60;;;;;;5044279;28;20260;-28
2023/10/05 13:04:45;;;;;;;9.90;1.90;;;19.30;63.70;;;;;;5044559;28;20224;-28
2023/10/05 13:07:21;;;;;;;13.20;2.70;;;19.30;63.70;;;;;;5043089;28;20200;-28
2023/10/05 13:10:08;;;;;;;6.18;1.83;;;19.40;63.70;;;;;;5044589;28;20648;-28
2023/10/05 13:12:36;;;;;;;6.18;1.83;;;19.40;63.60;;;;;;5044780;28;20760;-28
2023/10/05 13:15:04;;;;;;;5.80;1.92;;;19.40;63.70;;;;;;5043137;28;20204;-28
2023/10/05 13:17:37;;;;;;;9.48;2.05;;;19.50;63.60;;;;;;5043088;28;20200;-28
2023/10/05 13:20:14;;;;;;;6.30;2.17;;;19.50;63.40;;;;;;5044553;28;20635;-28
2023/10/05 13:22:44;;;;;;;5.10;1.95;;;19.60;63.60;;;;;;5043003;28;20202;-28
2023/10/05 13:25:12;;;;;;;11.55;2.30;;;19.60;63.60;;;;;;5044014;28;20247;-28
2023/10/05 13:27:39;;;;;;;4.68;1.75;;;19.60;63.50;;;;;;5030944;28;20193;-28
2023/10/05 13:30:11;;;;;;;5.28;1.83;;;19.70;63.40;;;;;;5047108;28;20300;-28
2023/10/05 13:32:43;;;;;;;7.93;2.03;;;19.70;63.40;;;;;;5048835;28;20477;-28